Time;durP1;ratioP1;P1;durP2;ratioP2;P2;SDS_P1;SDS_P2;PMS_P1;PMS_P2;Temp;Humidity;BMP_temperature;BMP_pressure;BME280_temperature;BME280_humidity;BME280_pressure;Samples;Min_cycle;Max_cycle;Signal;HPM_P1;HPM_P2
2023/06/26 00:00:20;;;;;;;15.60;13.98;;;21.70;99.90;;;;;;5002319;28;20048;-74
2023/06/26 00:02:46;;;;;;;15.57;13.95;;;21.70;99.90;;;;;;4936398;29;20114;-74
2023/06/26 00:05:13;;;;;;;16.50;14.50;;;21.80;99.90;;;;;;5002538;28;20047;-74
2023/06/26 00:07:39;;;;;;;16.35;13.55;;;21.70;99.90;;;;;;4936420;28;20071;-74
2023/06/26 00:10:05;;;;;;;16.02;14.27;;;21.70;99.90;;;;;;4935914;29;20094;-74
2023/06/26 00:12:31;;;;;;;15.55;13.77;;;21.80;99.90;;;;;;5002341;28;20113;-74
2023/06/26 00:14:57;;;;;;;16.00;14.38;;;21.70;99.90;;;;;;5002254;28;20632;-74
2023/06/26 00:17:23;;;;;;;16.58;14.80;;;21.70;99.90;;;;;;5001997;28;20080;-74
2023/06/26 00:19:49;;;;;;;15.55;13.95;;;21.70;99.90;;;;;;5001983;28;20090;-74
2023/06/26 00:22:15;;;;;;;17.45;15.27;;;21.70;99.90;;;;;;4936118;28;20131;-74
2023/06/26 00:24:40;;;;;;;17.73;14.18;;;21.70;99.90;;;;;;4936044;29;20123;-74
2023/06/26 00:27:06;;;;;;;16.17;14.52;;;21.60;99.90;;;;;;4936062;29;20123;-74
2023/06/26 00:29:32;;;;;;;16.90;15.15;;;21.60;99.90;;;;;;5001961;28;20087;-74
2023/06/26 00:31:57;;;;;;;17.27;15.50;;;21.60;99.90;;;;;;4935956;29;20586;-74
2023/06/26 00:34:23;;;;;;;16.98;15.18;;;21.60;99.90;;;;;;5001796;28;20454;-74
2023/06/26 00:36:48;;;;;;;16.00;14.43;;;21.60;99.90;;;;;;5001733;28;20089;-74
2023/06/26 00:39:16;;;;;;;19.73;15.68;;;21.60;99.90;;;;;;5001829;28;20043;-74
2023/06/26 00:41:41;;;;;;;20.10;16.25;;;21.50;99.90;;;;;;5001469;28;20044;-74
2023/06/26 00:44:07;;;;;;;19.40;15.18;;;21.50;99.90;;;;;;4935774;29;20051;-74
2023/06/26 00:46:34;;;;;;;18.42;16.50;;;21.50;99.90;;;;;;4935683;29;20044;-74
2023/06/26 00:49:02;;;;;;;17.95;16.05;;;21.50;99.90;;;;;;4935462;28;20399;-74
2023/06/26 00:51:30;;;;;;;21.95;16.52;;;21.40;99.90;;;;;;5001973;28;20543;-74
2023/06/26 00:53:57;;;;;;;17.02;15.20;;;21.40;99.90;;;;;;4935396;28;20055;-74
2023/06/26 00:56:23;;;;;;;17.85;16.02;;;21.40;99.90;;;;;;4935698;28;20043;-74
2023/06/26 00:58:49;;;;;;;18.45;15.65;;;21.40;99.90;;;;;;4935539;29;20131;-74
2023/06/26 01:01:21;;;;;;;18.15;15.63;;;21.40;99.90;;;;;;5001300;28;20198;-74
2023/06/26 01:03:52;;;;;;;20.65;16.25;;;21.40;99.90;;;;;;5001530;28;20047;-74
2023/06/26 01:06:21;;;;;;;20.20;15.85;;;21.30;99.90;;;;;;5001166;28;20048;-74
2023/06/26 01:08:48;;;;;;;19.40;17.13;;;21.30;99.90;;;;;;5001103;28;20083;-74
2023/06/26 01:11:14;;;;;;;18.42;16.58;;;21.30;99.90;;;;;;5001079;28;20136;-74
2023/06/26 01:13:42;;;;;;;19.02;16.17;;;21.30;99.90;;;;;;4935557;29;20052;-74
2023/06/26 01:16:09;;;;;;;20.42;16.23;;;21.30;99.90;;;;;;5001191;28;20119;-74
2023/06/26 01:18:37;;;;;;;16.60;14.85;;;21.20;99.90;;;;;;5001218;28;20065;-74
2023/06/26 01:21:04;;;;;;;18.92;16.90;;;21.20;99.90;;;;;;4935090;28;20487;-74
2023/06/26 01:23:57;;;;;;;19.35;17.33;;;21.20;99.90;;;;;;4935177;29;20044;-74
2023/06/26 01:26:24;;;;;;;19.13;16.63;;;21.20;99.90;;;;;;5001368;28;20105;-74
2023/06/26 01:28:52;;;;;;;19.45;15.93;;;21.20;99.90;;;;;;5000866;28;20056;-74
2023/06/26 01:31:19;;;;;;;19.77;16.40;;;21.20;99.90;;;;;;5000901;28;20054;-74
2023/06/26 01:33:46;;;;;;;20.27;16.95;;;21.20;99.90;;;;;;5000689;28;20102;-74
2023/06/26 01:36:12;;;;;;;18.85;16.38;;;21.20;99.90;;;;;;4935266;28;20075;-74
2023/06/26 01:38:38;;;;;;;19.02;16.40;;;21.10;99.90;;;;;;5000921;28;20522;-74
2023/06/26 01:41:06;;;;;;;19.15;17.15;;;21.20;99.90;;;;;;4935167;28;20048;-74
2023/06/26 01:43:57;;;;;;;21.45;18.33;;;21.10;99.90;;;;;;4935068;28;20538;-74
2023/06/26 01:46:39;;;;;;;18.23;16.33;;;21.10;99.90;;;;;;5000438;28;20054;-74
2023/06/26 01:49:39;;;;;;;19.75;17.65;;;21.10;99.90;;;;;;5000852;28;20059;-74
2023/06/26 01:52:23;;;;;;;19.33;17.33;;;21.10;99.90;;;;;;5000496;28;20043;-74
2023/06/26 01:55:17;;;;;;;20.10;17.60;;;21.10;99.90;;;;;;5000426;28;20059;-74
2023/06/26 01:57:43;;;;;;;20.85;17.65;;;21.10;99.90;;;;;;5000534;28;20056;-74
2023/06/26 02:00:10;;;;;;;20.42;18.00;;;21.10;99.90;;;;;;4934667;28;20047;-74
2023/06/26 02:02:36;;;;;;;20.33;17.58;;;21.10;99.90;;;;;;5000090;28;20050;-74
2023/06/26 02:05:02;;;;;;;19.95;17.88;;;21.10;99.90;;;;;;5000161;28;20039;-74
2023/06/26 02:07:28;;;;;;;21.55;17.75;;;21.10;99.90;;;;;;4999950;28;20097;-74
2023/06/26 02:09:54;;;;;;;21.05;19.02;;;21.20;99.90;;;;;;5000025;28;20059;-74
2023/06/26 02:12:20;;;;;;;20.27;17.92;;;21.20;99.90;;;;;;5000233;28;20143;-74
2023/06/26 02:14:46;;;;;;;21.35;19.20;;;21.20;99.90;;;;;;5000374;28;20544;-74
2023/06/26 02:17:11;;;;;;;19.88;17.75;;;21.20;99.90;;;;;;4999683;28;20101;-74
2023/06/26 02:19:45;;;;;;;20.02;18.02;;;21.30;99.90;;;;;;5000017;28;20056;-74
2023/06/26 02:22:10;;;;;;;20.92;18.60;;;21.30;99.90;;;;;;4934384;29;20036;-74
2023/06/26 02:24:36;;;;;;;20.58;18.15;;;21.20;99.90;;;;;;5000088;28;20078;-74
2023/06/26 02:27:02;;;;;;;22.08;19.80;;;21.20;99.90;;;;;;4934289;28;20083;-74
2023/06/26 02:29:28;;;;;;;20.88;18.60;;;21.20;99.90;;;;;;4999788;28;20130;-74
2023/06/26 02:31:53;;;;;;;20.33;17.85;;;21.20;99.90;;;;;;4999746;28;20044;-74
2023/06/26 02:34:19;;;;;;;21.15;18.92;;;21.20;99.90;;;;;;4934163;29;20050;-74
2023/06/26 02:36:44;;;;;;;22.38;18.83;;;21.10;99.90;;;;;;4934180;28;20047;-74
2023/06/26 02:39:10;;;;;;;21.70;18.85;;;21.10;99.90;;;;;;4933927;29;20094;-74
2023/06/26 02:41:36;;;;;;;22.50;18.80;;;21.10;99.90;;;;;;4999867;28;20485;-74
2023/06/26 02:44:02;;;;;;;20.70;18.38;;;21.10;99.90;;;;;;4933849;29;20039;-74
2023/06/26 02:46:27;;;;;;;20.60;18.40;;;21.00;99.90;;;;;;4999575;28;20048;-74
2023/06/26 02:48:53;;;;;;;21.58;19.35;;;21.00;99.90;;;;;;4999352;28;20044;-74
2023/06/26 02:51:18;;;;;;;20.58;17.67;;;21.00;99.90;;;;;;4933888;29;20043;-74
2023/06/26 02:53:44;;;;;;;20.30;18.20;;;21.00;99.90;;;;;;4999475;28;20418;-74
2023/06/26 02:56:10;;;;;;;20.40;16.38;;;21.00;99.90;;;;;;4999038;28;20048;-74
2023/06/26 02:58:36;;;;;;;19.58;17.55;;;21.10;99.90;;;;;;4999078;28;20044;-74
2023/06/26 03:01:01;;;;;;;18.48;16.65;;;21.10;99.90;;;;;;4932255;29;20411;-73
2023/06/26 03:03:27;;;;;;;20.48;18.27;;;21.00;99.90;;;;;;4998886;28;20505;-73
2023/06/26 03:05:53;;;;;;;20.17;18.17;;;21.10;99.90;;;;;;4999648;28;20117;-73
2023/06/26 03:08:19;;;;;;;20.08;17.90;;;21.10;99.90;;;;;;4998986;28;20387;-74
2023/06/26 03:10:44;;;;;;;20.30;18.20;;;21.00;99.90;;;;;;4999118;28;20052;-74
2023/06/26 03:13:10;;;;;;;21.13;18.20;;;21.00;99.90;;;;;;4999209;28;20134;-74
2023/06/26 03:15:42;;;;;;;20.30;18.17;;;21.00;99.90;;;;;;4998888;28;20044;-74
2023/06/26 03:18:09;;;;;;;22.40;18.20;;;20.90;99.90;;;;;;4999127;28;20054;-74
2023/06/26 03:20:35;;;;;;;21.75;19.63;;;20.90;99.90;;;;;;4933407;29;20055;-73
2023/06/26 03:23:00;;;;;;;22.42;20.02;;;20.90;99.90;;;;;;4999190;28;20139;-73
2023/06/26 03:25:26;;;;;;;24.30;21.63;;;20.90;99.90;;;;;;4999076;28;20056;-74
2023/06/26 03:27:51;;;;;;;23.25;20.67;;;20.90;99.90;;;;;;4999527;28;20617;-73
2023/06/26 03:30:17;;;;;;;21.40;19.10;;;20.90;99.90;;;;;;4936524;29;20052;-74
2023/06/26 03:32:43;;;;;;;22.30;19.90;;;20.90;99.90;;;;;;4936831;29;20040;-74
2023/06/26 03:35:09;;;;;;;25.80;19.95;;;20.90;99.90;;;;;;4936799;28;20040;-73
2023/06/26 03:37:35;;;;;;;24.17;19.23;;;20.90;99.90;;;;;;4936557;29;20048;-74
2023/06/26 03:40:00;;;;;;;28.17;19.30;;;20.90;99.90;;;;;;5002630;28;20400;-74
2023/06/26 03:42:26;;;;;;;19.55;17.48;;;20.90;99.90;;;;;;5002905;28;20039;-74
2023/06/26 03:44:51;;;;;;;23.15;18.52;;;21.00;99.90;;;;;;5002689;28;20110;-73
2023/06/26 03:47:17;;;;;;;21.85;19.05;;;20.90;99.90;;;;;;4936384;29;20047;-74
2023/06/26 03:49:43;;;;;;;20.75;18.55;;;20.90;99.90;;;;;;5002354;28;20056;-74
2023/06/26 03:52:08;;;;;;;21.27;18.42;;;20.90;99.90;;;;;;4936713;28;20073;-74
2023/06/26 03:54:34;;;;;;;24.90;19.67;;;20.90;99.90;;;;;;5002698;28;20047;-74
2023/06/26 03:56:59;;;;;;;23.27;17.33;;;20.90;99.90;;;;;;5002192;28;20056;-74
2023/06/26 03:59:25;;;;;;;23.73;17.42;;;20.90;99.90;;;;;;5002257;28;20043;-74
2023/06/26 04:01:51;;;;;;;21.42;17.15;;;20.90;99.90;;;;;;5002074;28;20077;-74
2023/06/26 04:04:16;;;;;;;22.63;16.58;;;20.90;99.90;;;;;;5002341;28;20044;-73
2023/06/26 04:06:42;;;;;;;21.55;16.42;;;20.90;99.90;;;;;;4936141;29;20480;-74
2023/06/26 04:09:08;;;;;;;26.05;17.45;;;20.90;99.90;;;;;;5015463;28;20049;-74
2023/06/26 04:11:34;;;;;;;18.25;15.02;;;20.90;99.90;;;;;;5015505;28;20053;-73
2023/06/26 04:13:59;;;;;;;20.83;16.52;;;20.90;99.90;;;;;;5015724;28;20054;-74
2023/06/26 04:16:25;;;;;;;22.75;16.80;;;20.90;99.90;;;;;;5015387;28;20409;-74
2023/06/26 04:18:52;;;;;;;21.30;15.43;;;20.90;99.90;;;;;;5030610;28;20116;-74
2023/06/26 04:21:18;;;;;;;23.67;17.48;;;20.90;99.90;;;;;;5056515;28;20041;-74
2023/06/26 04:23:43;;;;;;;30.65;18.77;;;20.80;99.90;;;;;;5056464;28;20041;-75
2023/06/26 04:26:09;;;;;;;30.77;20.48;;;20.80;99.90;;;;;;5055116;28;20052;-75
2023/06/26 04:28:36;;;;;;;35.55;21.17;;;20.60;99.90;;;;;;5055109;28;20053;-74
2023/06/26 04:31:05;;;;;;;32.75;21.65;;;20.50;99.90;;;;;;5055230;28;20041;-74
2023/06/26 04:33:31;;;;;;;37.50;21.50;;;20.50;99.90;;;;;;5056167;28;20488;-74
2023/06/26 04:35:57;;;;;;;33.50;22.35;;;20.30;99.90;;;;;;5056222;28;20052;-74
2023/06/26 04:38:23;;;;;;;36.58;22.88;;;20.20;99.90;;;;;;5055115;28;20049;-73
2023/06/26 04:40:49;;;;;;;35.55;23.50;;;20.20;99.90;;;;;;5053901;28;20125;-73
2023/06/26 04:43:15;;;;;;;31.10;20.95;;;20.10;99.90;;;;;;5054611;28;20447;-74
2023/06/26 04:45:40;;;;;;;30.45;20.73;;;19.90;99.90;;;;;;5055084;28;20033;-74
2023/06/26 04:48:06;;;;;;;27.00;18.80;;;19.90;99.90;;;;;;5054872;28;20400;-74
2023/06/26 04:50:33;;;;;;;32.85;15.82;;;19.80;99.90;;;;;;5055878;28;20045;-74
2023/06/26 04:52:59;;;;;;;23.05;11.60;;;19.60;99.90;;;;;;5055828;28;20060;-75
2023/06/26 04:55:25;;;;;;;24.23;10.63;;;19.50;99.90;;;;;;5055573;28;20404;-74
2023/06/26 04:57:51;;;;;;;21.52;10.75;;;19.50;99.90;;;;;;5054677;28;20465;-74
2023/06/26 05:00:17;;;;;;;18.92;9.15;;;19.50;99.90;;;;;;5054582;28;20480;-74
2023/06/26 05:02:43;;;;;;;25.95;9.70;;;19.40;99.90;;;;;;5055789;28;20041;-74
2023/06/26 05:05:10;;;;;;;15.73;7.85;;;19.30;99.90;;;;;;5054282;28;20106;-74
2023/06/26 05:07:36;;;;;;;20.33;8.63;;;19.30;99.90;;;;;;5054220;28;20155;-74
2023/06/26 05:10:02;;;;;;;20.88;7.80;;;19.30;99.90;;;;;;5053949;28;20076;-74
2023/06/26 05:12:28;;;;;;;17.15;7.20;;;19.30;99.90;;;;;;5055601;28;20049;-75
2023/06/26 05:14:54;;;;;;;21.17;7.03;;;19.30;99.90;;;;;;5054024;28;20492;-75
2023/06/26 05:17:19;;;;;;;17.23;6.20;;;19.30;99.90;;;;;;5055499;28;20128;-75
2023/06/26 05:19:45;;;;;;;16.63;5.45;;;19.30;99.90;;;;;;5053949;28;20037;-75
2023/06/26 05:22:13;;;;;;;21.00;6.65;;;19.30;99.90;;;;;;5053902;28;20182;-75
2023/06/26 05:24:39;;;;;;;19.60;6.15;;;19.20;99.90;;;;;;5053811;28;20044;-74
2023/06/26 05:27:06;;;;;;;19.08;5.85;;;19.10;99.90;;;;;;5054057;28;20520;-75
2023/06/26 05:29:32;;;;;;;21.77;7.15;;;19.20;99.90;;;;;;5055316;28;20116;-74
2023/06/26 05:31:59;;;;;;;22.30;5.45;;;19.20;99.90;;;;;;5053885;28;20064;-75
2023/06/26 05:34:28;;;;;;;19.40;5.20;;;19.10;99.90;;;;;;5055040;28;20045;-74
2023/06/26 05:36:57;;;;;;;16.52;4.60;;;19.00;99.90;;;;;;5053875;28;20052;-75
2023/06/26 05:39:24;;;;;;;22.83;5.07;;;19.00;99.90;;;;;;5053422;28;20078;-74
2023/06/26 05:41:50;;;;;;;16.45;5.22;;;18.90;99.90;;;;;;5054767;28;20436;-74
2023/06/26 05:44:16;;;;;;;19.00;5.10;;;19.00;99.90;;;;;;5053430;28;20084;-74
2023/06/26 05:46:41;;;;;;;16.23;4.45;;;19.00;99.90;;;;;;5053388;28;20134;-74
2023/06/26 05:49:07;;;;;;;16.35;4.85;;;19.10;99.90;;;;;;5054632;28;20123;-74
2023/06/26 05:51:33;;;;;;;14.27;4.50;;;19.20;99.90;;;;;;5053681;28;20041;-74
2023/06/26 05:53:59;;;;;;;17.83;4.82;;;19.30;99.90;;;;;;5053475;28;20041;-75
2023/06/26 05:56:25;;;;;;;19.70;3.95;;;19.40;99.90;;;;;;5054574;28;20124;-74
2023/06/26 05:58:52;;;;;;;19.67;4.07;;;19.50;99.90;;;;;;5053109;28;20072;-74
2023/06/26 06:01:18;;;;;;;15.52;4.72;;;19.50;99.90;;;;;;5054482;28;20493;-74
2023/06/26 06:03:44;;;;;;;24.02;4.80;;;19.60;99.90;;;;;;5053150;28;20044;-75
2023/06/26 06:06:10;;;;;;;19.98;4.78;;;19.60;99.90;;;;;;5054488;28;20052;-74
2023/06/26 06:08:38;;;;;;;22.90;4.95;;;19.80;99.90;;;;;;5052867;28;20123;-73
2023/06/26 06:11:03;;;;;;;22.42;4.60;;;19.90;99.90;;;;;;5053024;28;20464;-73
2023/06/26 06:13:29;;;;;;;16.13;4.07;;;19.90;99.90;;;;;;5053196;28;20497;-73
2023/06/26 06:15:56;;;;;;;16.85;4.15;;;19.80;99.90;;;;;;5053058;28;20067;-73
2023/06/26 06:18:21;;;;;;;16.63;4.57;;;19.90;99.90;;;;;;5054198;28;20044;-73
2023/06/26 06:20:47;;;;;;;15.77;4.43;;;20.00;99.90;;;;;;5052827;28;20051;-73
2023/06/26 06:23:13;;;;;;;14.38;3.72;;;20.00;99.90;;;;;;5052924;28;20060;-74
2023/06/26 06:25:39;;;;;;;14.02;3.33;;;20.20;99.90;;;;;;5052946;28;20049;-72
2023/06/26 06:28:05;;;;;;;16.00;3.65;;;20.20;99.90;;;;;;5053839;28;20386;-73
2023/06/26 06:30:31;;;;;;;10.10;2.97;;;20.40;99.90;;;;;;5052706;28;20045;-73
2023/06/26 06:32:57;;;;;;;14.23;3.50;;;20.50;99.90;;;;;;5028966;28;20044;-73
2023/06/26 06:35:23;;;;;;;15.82;3.65;;;20.50;99.90;;;;;;5012224;28;20112;-72
2023/06/26 06:37:49;;;;;;;14.23;3.30;;;20.50;99.90;;;;;;5014167;28;20104;-74
2023/06/26 06:40:15;;;;;;;9.82;3.25;;;20.50;99.90;;;;;;5012746;28;20060;-73
2023/06/26 06:42:41;;;;;;;18.13;3.13;;;20.50;99.90;;;;;;5014043;28;20493;-73
2023/06/26 06:45:07;;;;;;;14.70;3.22;;;20.40;99.90;;;;;;5013934;28;20038;-73
2023/06/26 06:47:33;;;;;;;13.65;2.95;;;20.40;99.90;;;;;;5012447;28;20050;-73
2023/06/26 06:50:07;;;;;;;10.38;2.40;;;20.50;99.90;;;;;;5014021;28;20501;-72
2023/06/26 06:52:42;;;;;;;9.02;2.67;;;20.50;99.90;;;;;;5012518;28;20053;-72
2023/06/26 06:55:08;;;;;;;11.00;3.45;;;20.50;99.90;;;;;;5012459;28;20053;-73
2023/06/26 06:57:38;;;;;;;12.40;2.60;;;20.60;99.90;;;;;;5013699;28;20046;-73
2023/06/26 07:00:12;;;;;;;12.75;2.60;;;20.60;99.90;;;;;;5012258;28;20041;-72
2023/06/26 07:02:39;;;;;;;9.27;2.50;;;20.60;99.90;;;;;;5013525;28;20129;-73
2023/06/26 07:05:05;;;;;;;10.45;2.03;;;20.60;99.90;;;;;;5013424;28;20506;-73
2023/06/26 07:07:32;;;;;;;8.52;2.28;;;20.70;99.90;;;;;;5013836;28;20034;-73
2023/06/26 07:10:00;;;;;;;10.43;2.42;;;20.90;99.90;;;;;;5012226;28;20064;-73
2023/06/26 07:12:25;;;;;;;8.82;2.55;;;21.00;99.90;;;;;;5013721;28;20108;-74
2023/06/26 07:14:51;;;;;;;10.05;2.15;;;20.90;99.90;;;;;;5012129;28;20401;-74
2023/06/26 07:17:17;;;;;;;9.98;2.13;;;21.00;99.90;;;;;;5012331;28;20038;-73
2023/06/26 07:19:42;;;;;;;10.75;2.28;;;21.20;99.90;;;;;;5013586;28;20046;-74
2023/06/26 07:22:08;;;;;;;11.55;2.33;;;21.10;99.90;;;;;;5013690;28;20034;-75
2023/06/26 07:24:34;;;;;;;9.15;2.78;;;21.10;99.90;;;;;;5013298;28;20405;-76
2023/06/26 07:27:00;;;;;;;8.10;2.38;;;21.10;99.90;;;;;;5013261;28;20092;-74
2023/06/26 07:29:26;;;;;;;12.02;2.30;;;21.10;99.90;;;;;;5011993;28;20509;-74
2023/06/26 07:31:52;;;;;;;9.45;2.05;;;21.20;99.90;;;;;;5013043;28;20089;-74
2023/06/26 07:34:17;;;;;;;10.52;2.10;;;21.30;99.90;;;;;;5011917;28;20053;-75
2023/06/26 07:36:43;;;;;;;11.95;2.47;;;21.40;99.90;;;;;;5011841;28;20132;-73
2023/06/26 07:39:11;;;;;;;12.48;2.80;;;21.40;99.90;;;;;;5011769;28;20046;-74
2023/06/26 07:41:37;;;;;;;9.52;2.10;;;21.30;99.90;;;;;;5011932;28;20046;-74
2023/06/26 07:44:03;;;;;;;10.55;2.50;;;21.30;99.90;;;;;;5013111;28;20041;-73
2023/06/26 07:46:28;;;;;;;12.07;2.13;;;21.30;99.90;;;;;;5011645;28;20084;-75
2023/06/26 07:48:54;;;;;;;11.05;2.58;;;21.40;99.90;;;;;;5011786;28;20489;-75
2023/06/26 07:51:20;;;;;;;12.45;2.35;;;21.30;99.90;;;;;;5011890;28;20509;-75
2023/06/26 07:53:46;;;;;;;12.77;2.28;;;21.40;99.90;;;;;;5011740;28;20378;-75
2023/06/26 07:56:12;;;;;;;11.93;2.15;;;21.30;99.90;;;;;;5013330;28;20579;-70
2023/06/26 07:58:37;;;;;;;13.48;2.40;;;21.20;99.90;;;;;;5013083;28;20605;-73
2023/06/26 08:01:03;;;;;;;9.80;2.35;;;21.20;99.90;;;;;;5011530;28;20054;-75
2023/06/26 08:03:28;;;;;;;13.25;2.63;;;21.20;99.90;;;;;;5011882;28;20038;-79
2023/06/26 08:05:54;;;;;;;10.48;2.38;;;21.30;99.90;;;;;;5011827;28;20081;-74
2023/06/26 08:08:20;;;;;;;9.02;2.45;;;21.30;99.90;;;;;;5004138;28;20092;-76
2023/06/26 08:10:46;;;;;;;9.07;2.40;;;21.30;99.90;;;;;;4998101;28;20419;-74
2023/06/26 08:13:12;;;;;;;8.55;2.45;;;21.30;99.90;;;;;;4932899;28;20047;-74
2023/06/26 08:15:37;;;;;;;10.15;2.60;;;21.30;99.90;;;;;;4999885;28;20051;-74
2023/06/26 08:18:03;;;;;;;10.38;3.00;;;21.40;99.90;;;;;;5001895;28;20090;-74
2023/06/26 08:20:29;;;;;;;10.38;2.60;;;21.30;99.90;;;;;;5001780;28;20436;-74
2023/06/26 08:22:55;;;;;;;8.10;2.65;;;21.20;99.90;;;;;;5001768;28;20384;-73
2023/06/26 08:25:21;;;;;;;12.68;3.00;;;21.20;99.90;;;;;;5001598;28;20542;-75
2023/06/26 08:27:46;;;;;;;6.05;2.60;;;21.10;99.90;;;;;;5001461;28;20048;-74
2023/06/26 08:30:13;;;;;;;8.48;3.22;;;21.30;99.90;;;;;;5001708;28;20146;-74
2023/06/26 08:32:39;;;;;;;7.65;2.40;;;21.20;99.90;;;;;;5001530;28;20048;-74
2023/06/26 08:35:06;;;;;;;9.27;2.83;;;21.30;99.90;;;;;;5001588;28;20052;-74
2023/06/26 08:37:32;;;;;;;8.55;2.70;;;21.20;99.90;;;;;;5001120;28;20131;-73
2023/06/26 08:39:59;;;;;;;8.20;2.80;;;21.30;99.90;;;;;;5001224;28;20094;-74
2023/06/26 08:42:25;;;;;;;6.57;2.70;;;21.50;99.90;;;;;;5001208;28;20043;-74
2023/06/26 08:44:51;;;;;;;11.80;3.53;;;21.70;99.90;;;;;;5001407;28;20048;-73
2023/06/26 08:47:17;;;;;;;11.63;3.10;;;21.70;99.90;;;;;;5001549;28;20047;-75
2023/06/26 08:49:51;;;;;;;9.55;3.38;;;21.70;99.90;;;;;;5001470;28;20526;-72
2023/06/26 08:52:22;;;;;;;8.93;3.15;;;21.60;99.90;;;;;;5001799;28;20181;-73
2023/06/26 08:54:55;;;;;;;13.63;3.25;;;21.30;99.90;;;;;;5001559;28;20079;-80
2023/06/26 08:57:22;;;;;;;13.20;3.90;;;21.30;99.90;;;;;;5015214;28;20058;-77
2023/06/26 08:59:48;;;;;;;11.85;3.42;;;21.40;99.90;;;;;;5035614;28;20130;-77
2023/06/26 09:02:14;;;;;;;7.63;3.42;;;21.40;99.90;;;;;;4959293;28;20118;-79
2023/06/26 09:04:40;;;;;;;9.65;3.70;;;21.30;99.90;;;;;;5016391;28;20055;-78
2023/06/26 09:07:06;;;;;;;12.15;3.38;;;21.10;99.90;;;;;;5016697;28;20483;-77
2023/06/26 09:09:32;;;;;;;12.38;3.25;;;21.10;99.90;;;;;;5016470;28;20248;-77
2023/06/26 09:11:58;;;;;;;8.55;3.22;;;21.20;99.90;;;;;;5015666;28;20059;-78
2023/06/26 09:14:23;;;;;;;8.20;3.30;;;21.00;99.90;;;;;;4950308;28;20078;-77
2023/06/26 09:16:49;;;;;;;10.32;3.25;;;20.90;99.90;;;;;;5016834;28;20043;-76
2023/06/26 09:19:15;;;;;;;13.55;3.15;;;20.90;99.90;;;;;;4949284;28;20491;-78
2023/06/26 09:21:42;;;;;;;10.88;3.65;;;21.00;99.90;;;;;;5016632;28;20125;-76
2023/06/26 09:24:09;;;;;;;9.25;2.95;;;21.20;99.90;;;;;;4970852;28;20058;-74
2023/06/26 09:26:40;;;;;;;11.60;3.70;;;21.40;99.90;;;;;;5030754;28;20050;-77
2023/06/26 09:29:06;;;;;;;8.85;3.10;;;21.60;99.90;;;;;;5036304;28;20054;-78
2023/06/26 09:31:33;;;;;;;11.82;2.90;;;21.70;99.90;;;;;;5032086;28;20051;-73
2023/06/26 09:34:00;;;;;;;8.90;3.25;;;21.80;99.90;;;;;;5039439;28;20406;-79
2023/06/26 09:36:28;;;;;;;8.98;3.35;;;21.80;99.90;;;;;;5026618;28;20124;-77
2023/06/26 09:38:54;;;;;;;7.70;2.85;;;22.00;99.90;;;;;;5025682;28;20188;-74
2023/06/26 09:41:20;;;;;;;8.88;2.92;;;22.20;99.90;;;;;;5036429;28;20124;-74
2023/06/26 09:43:49;;;;;;;8.75;2.90;;;22.30;99.90;;;;;;5018121;28;20059;-72
2023/06/26 09:46:28;;;;;;;11.32;3.17;;;22.30;99.90;;;;;;5036409;28;20060;-75
2023/06/26 09:49:10;;;;;;;8.65;3.53;;;22.40;99.90;;;;;;5000236;28;20062;-74
2023/06/26 09:51:37;;;;;;;7.82;2.97;;;22.30;99.90;;;;;;4934684;28;20044;-73
2023/06/26 09:54:04;;;;;;;9.40;3.05;;;22.40;99.90;;;;;;4934109;28;20051;-73
2023/06/26 09:56:32;;;;;;;9.52;2.53;;;22.50;99.90;;;;;;5007481;28;20542;-73
2023/06/26 09:59:02;;;;;;;7.03;2.70;;;22.30;99.90;;;;;;4953208;28;20055;-75
2023/06/26 10:01:29;;;;;;;6.75;2.38;;;22.20;99.90;;;;;;5019658;28;20066;-75
2023/06/26 10:03:58;;;;;;;7.32;3.03;;;22.30;99.90;;;;;;4957726;28;20084;-74
2023/06/26 10:06:38;;;;;;;8.73;2.95;;;22.60;99.90;;;;;;4972472;28;20050;-73
2023/06/26 10:09:04;;;;;;;7.82;3.53;;;22.40;99.90;;;;;;5039070;28;20058;-73
2023/06/26 10:11:45;;;;;;;6.15;2.92;;;22.60;99.90;;;;;;5039657;28;20092;-73
2023/06/26 10:14:12;;;;;;;9.55;3.28;;;22.80;99.90;;;;;;5039122;28;20051;-74
2023/06/26 10:16:41;;;;;;;8.32;3.13;;;22.70;99.90;;;;;;5039339;28;20050;-74
2023/06/26 10:19:10;;;;;;;9.45;3.95;;;22.90;99.90;;;;;;4972602;28;20053;-74
2023/06/26 10:21:38;;;;;;;6.90;3.08;;;23.00;99.90;;;;;;5038998;28;20409;-74
2023/06/26 10:24:06;;;;;;;8.05;2.75;;;22.90;99.90;;;;;;5039185;28;20047;-73
2023/06/26 10:26:38;;;;;;;8.98;2.80;;;22.70;99.90;;;;;;5039247;28;20050;-73
2023/06/26 10:29:05;;;;;;;14.10;3.03;;;22.50;99.90;;;;;;5039254;28;20061;-72
2023/06/26 10:31:32;;;;;;;9.43;2.75;;;22.20;99.90;;;;;;5024172;28;20047;-74
2023/06/26 10:33:58;;;;;;;10.88;3.05;;;22.30;99.90;;;;;;4953008;28;20051;-74
2023/06/26 10:36:29;;;;;;;8.32;2.90;;;22.30;99.90;;;;;;4953043;28;20062;-74
2023/06/26 10:38:57;;;;;;;14.18;3.33;;;22.50;99.90;;;;;;4963461;28;20042;-73
2023/06/26 10:41:25;;;;;;;8.98;3.13;;;22.60;99.90;;;;;;5038693;28;20051;-76
2023/06/26 10:43:59;;;;;;;14.20;3.38;;;22.70;99.90;;;;;;5038622;28;20093;-74
2023/06/26 10:46:25;;;;;;;8.55;3.30;;;22.50;99.90;;;;;;4972187;28;20047;-73
2023/06/26 10:48:59;;;;;;;9.50;2.35;;;22.40;99.90;;;;;;5038832;28;20049;-74
2023/06/26 10:51:26;;;;;;;12.75;3.20;;;22.50;99.90;;;;;;5038719;28;20051;-73
2023/06/26 10:53:57;;;;;;;11.95;3.03;;;22.50;99.90;;;;;;4972078;28;20101;-74
2023/06/26 10:56:46;;;;;;;11.95;2.85;;;22.70;99.90;;;;;;5038896;28;20050;-72
2023/06/26 10:59:20;;;;;;;9.63;2.60;;;22.80;99.90;;;;;;4971999;28;20074;-72
2023/06/26 11:01:57;;;;;;;12.35;3.28;;;22.80;99.90;;;;;;5038808;28;20043;-75
2023/06/26 11:04:46;;;;;;;11.50;3.58;;;22.70;99.90;;;;;;5038777;28;20069;-73
2023/06/26 11:07:23;;;;;;;11.50;3.42;;;22.60;99.90;;;;;;5038349;28;20100;-74
2023/06/26 11:10:02;;;;;;;13.55;3.10;;;22.50;99.90;;;;;;5038416;28;20138;-74
2023/06/26 11:12:38;;;;;;;12.05;3.42;;;22.70;99.90;;;;;;5038036;28;20414;-73
2023/06/26 11:15:15;;;;;;;8.90;2.97;;;22.70;99.90;;;;;;4971598;28;20462;-74
2023/06/26 11:17:42;;;;;;;13.25;3.60;;;22.50;99.90;;;;;;5038366;28;20046;-72
2023/06/26 11:20:10;;;;;;;10.93;3.70;;;22.40;99.90;;;;;;4971791;28;20043;-73
2023/06/26 11:22:37;;;;;;;6.75;2.70;;;22.50;99.90;;;;;;4971621;28;20047;-72
2023/06/26 11:25:04;;;;;;;6.47;3.38;;;22.20;99.90;;;;;;4971456;28;20418;-72
2023/06/26 11:27:32;;;;;;;12.75;4.47;;;22.40;99.90;;;;;;4971528;28;20050;-73
2023/06/26 11:29:58;;;;;;;12.00;3.33;;;22.50;99.90;;;;;;5038250;28;20130;-72
2023/06/26 11:32:26;;;;;;;8.65;3.13;;;22.50;99.90;;;;;;5037941;28;20129;-72
2023/06/26 11:34:52;;;;;;;9.82;3.20;;;22.60;99.90;;;;;;5037945;28;20126;-71
2023/06/26 11:37:19;;;;;;;10.13;2.95;;;22.80;99.90;;;;;;5037896;28;20134;-73
2023/06/26 11:39:44;;;;;;;8.15;3.58;;;22.70;99.90;;;;;;5023659;28;20047;-73
2023/06/26 11:42:11;;;;;;;12.45;3.60;;;22.70;99.90;;;;;;5018110;28;20051;-73
2023/06/26 11:44:41;;;;;;;10.70;3.53;;;22.50;99.90;;;;;;5018243;28;20043;-73
2023/06/26 11:47:07;;;;;;;8.82;3.35;;;22.60;99.90;;;;;;4962492;28;20082;-74
2023/06/26 11:49:33;;;;;;;7.80;3.08;;;22.70;99.90;;;;;;5038246;28;20101;-74
2023/06/26 11:51:59;;;;;;;6.40;2.88;;;22.80;99.90;;;;;;4974887;28;20501;-74
2023/06/26 11:54:27;;;;;;;11.00;5.18;;;22.90;99.90;;;;;;4974576;28;20078;-73
2023/06/26 11:56:58;;;;;;;9.02;2.95;;;22.90;99.90;;;;;;5041671;28;20053;-74
2023/06/26 11:59:25;;;;;;;11.07;3.28;;;22.80;99.90;;;;;;4974562;28;20421;-74
2023/06/26 12:01:52;;;;;;;10.32;3.00;;;22.80;99.90;;;;;;5041876;28;20573;-74
2023/06/26 12:04:19;;;;;;;8.07;3.00;;;22.80;99.90;;;;;;5041924;28;20490;-76
2023/06/26 12:06:51;;;;;;;10.05;2.50;;;22.90;99.90;;;;;;5041699;28;20487;-77
2023/06/26 12:09:19;;;;;;;9.88;2.80;;;22.90;99.90;;;;;;5041368;28;20499;-73
2023/06/26 12:11:48;;;;;;;6.43;2.50;;;22.90;99.90;;;;;;5041568;28;20063;-76
2023/06/26 12:14:14;;;;;;;9.75;3.28;;;22.60;99.90;;;;;;5041994;28;20054;-73
2023/06/26 12:16:40;;;;;;;8.75;2.63;;;22.40;99.90;;;;;;4974730;28;20096;-73
2023/06/26 12:19:08;;;;;;;8.88;2.90;;;22.00;99.90;;;;;;4974452;28;20035;-73
2023/06/26 12:21:34;;;;;;;9.93;3.05;;;21.90;99.90;;;;;;5041664;28;20059;-72
2023/06/26 12:24:00;;;;;;;10.68;2.85;;;22.10;99.90;;;;;;4974636;28;20046;-74
2023/06/26 12:26:27;;;;;;;10.98;3.28;;;22.40;99.90;;;;;;5041450;28;20100;-74
2023/06/26 12:28:52;;;;;;;9.10;2.90;;;22.40;99.90;;;;;;5041367;28;20074;-75
2023/06/26 12:31:21;;;;;;;12.05;2.80;;;22.50;99.90;;;;;;5041285;28;20082;-74
2023/06/26 12:33:47;;;;;;;13.18;2.97;;;22.40;99.90;;;;;;4974171;28;20043;-74
2023/06/26 12:36:14;;;;;;;15.45;3.40;;;22.40;99.90;;;;;;4974371;28;20051;-74